CheckWX is a tool to help pilots better visualize weather data.  It is not intended as a substitute for an official pre-flight weather briefing.

18:38:36 UTC

KMVY METAR
Martha's Vineyard Airport
Vineyard Haven, Massachusetts, USA
Current

34 mins ago

KMVY 121805Z 28008G17KT 4SM RA BR SCT013 BKN027 OVC060 11/09 A2972 RMK AO2 P0002 T01110094
Observed
Nov-12 @ 18:05 UTC
Wind
  • 280° at 8 KTS
  • Gusting to 17 KTS
Visibility
4 SM
Flight Rules
MVFR
Conditions
Rain, Mist
Cloud Levels
  • Scattered at 1,300' AGL
  • Broken at 2,700' AGL
  • Overcast at 6,000' AGL
Temperature
11°C / 52°F
Dewpoint
C / 48°F
Humidity
88%
Altimeter
29.72" Hg
Pressure
1006.42 hPa
Current Rain
0.02"
Previous

46 mins ago

KMVY 121753Z 25009G15KT 5SM -RA BR FEW015 FEW027 OVC065 12/10 A2970 RMK AO2 SLP058 P0002 60002 T01220100 10156 20122 55002
Observed
Nov-12 @ 17:53 UTC
Wind
  • 250° at 9 KTS
  • Gusting to 15 KTS
Visibility
5 SM
Flight Rules
MVFR
Conditions
Light Rain, Mist
Cloud Levels
  • Few at 1,500' AGL
  • Few at 2,700' AGL
  • Overcast at 6,500' AGL
Temperature
12°C / 54°F
Dewpoint
10°C / 50°F
Humidity
88%
Altimeter
29.7" Hg
Pressure
1005.72 hPa
Current Rain
0.02"
Previous

2 hours ago

KMVY 121653Z 26011KT 9SM -RA OVC090 14/10 A2967 RMK AO2 RAB30 SLP046 P0000 T01440100
Observed
Nov-12 @ 16:53 UTC
Wind
  • 260° at 11 KTS
Visibility
9 SM
Flight Rules
VFR
Conditions
Light Rain
Cloud Levels
  • Overcast at 9,000' AGL
Temperature
14°C / 57°F
Dewpoint
10°C / 50°F
Humidity
77%
Altimeter
29.67" Hg
Pressure
1004.72 hPa
Current Rain
0.01"